sensor_id;sensor_type;location;lat;lon;timestamp;pressure;altitude;pressure_sealevel;temperature;humidity
76694;BME280;69667;52.136;5.424;2023-11-21T00:00:05;101173.94;;;5.57;100.00
76694;BME280;69667;52.136;5.424;2023-11-21T00:02:41;101173.88;;;5.59;100.00
76694;BME280;69667;52.136;5.424;2023-11-21T00:05:10;101181.81;;;5.60;100.00
76694;BME280;69667;52.136;5.424;2023-11-21T00:07:41;101175.50;;;5.61;100.00
76694;BME280;69667;52.136;5.424;2023-11-21T00:10:11;101187.03;;;5.63;100.00
76694;BME280;69667;52.136;5.424;2023-11-21T00:12:42;101190.34;;;5.68;100.00
76694;BME280;69667;52.136;5.424;2023-11-21T00:15:10;101193.81;;;5.70;100.00
76694;BME280;69667;52.136;5.424;2023-11-21T00:17:40;101192.78;;;5.73;100.00
76694;BME280;69667;52.136;5.424;2023-11-21T00:20:08;101190.91;;;5.75;100.00
76694;BME280;69667;52.136;5.424;2023-11-21T00:22:41;101200.59;;;5.77;100.00
76694;BME280;69667;52.136;5.424;2023-11-21T00:25:09;101202.34;;;5.78;100.00
76694;BME280;69667;52.136;5.424;2023-11-21T00:27:38;101196.03;;;5.79;100.00
76694;BME280;69667;52.136;5.424;2023-11-21T00:30:06;101200.53;;;5.79;100.00
76694;BME280;69667;52.136;5.424;2023-11-21T00:32:37;101196.09;;;5.78;100.00
76694;BME280;69667;52.136;5.424;2023-11-21T00:35:06;101199.66;;;5.78;100.00
76694;BME280;69667;52.136;5.424;2023-11-21T00:37:34;101200.53;;;5.79;100.00
76694;BME280;69667;52.136;5.424;2023-11-21T00:40:03;101201.63;;;5.75;100.00
76694;BME280;69667;52.136;5.424;2023-11-21T00:42:34;101200.81;;;5.73;100.00
76694;BME280;69667;52.136;5.424;2023-11-21T00:45:03;101206.31;;;5.70;100.00
76694;BME280;69667;52.136;5.424;2023-11-21T00:47:31;101207.22;;;5.70;100.00
76694;BME280;69667;52.136;5.424;2023-11-21T00:50:00;101207.38;;;5.67;100.00
76694;BME280;69667;52.136;5.424;2023-11-21T00:52:29;101205.75;;;5.63;100.00
76694;BME280;69667;52.136;5.424;2023-11-21T00:54:58;101205.94;;;5.60;100.00
76694;BME280;69667;52.136;5.424;2023-11-21T00:57:27;101214.13;;;5.57;100.00
76694;BME280;69667;52.136;5.424;2023-11-21T00:59:55;101215.91;;;5.57;100.00
76694;BME280;69667;52.136;5.424;2023-11-21T01:02:24;101213.31;;;5.55;100.00
76694;BME280;69667;52.136;5.424;2023-11-21T01:04:53;101225.81;;;5.55;100.00
76694;BME280;69667;52.136;5.424;2023-11-21T01:07:21;101229.38;;;5.55;100.00
76694;BME280;69667;52.136;5.424;2023-11-21T01:09:50;101232.84;;;5.57;100.00
76694;BME280;69667;52.136;5.424;2023-11-21T01:12:18;101229.06;;;5.61;100.00
76694;BME280;69667;52.136;5.424;2023-11-21T01:14:47;101238.78;;;5.64;100.00
76694;BME280;69667;52.136;5.424;2023-11-21T01:17:15;101239.50;;;5.67;100.00
76694;BME280;69667;52.136;5.424;2023-11-21T01:19:44;101239.25;;;5.72;100.00
76694;BME280;69667;52.136;5.424;2023-11-21T01:22:12;101243.66;;;5.73;100.00
76694;BME280;69667;52.136;5.424;2023-11-21T01:24:40;101237.53;;;5.71;100.00
76694;BME280;69667;52.136;5.424;2023-11-21T01:27:08;101240.97;;;5.73;100.00
76694;BME280;69667;52.136;5.424;2023-11-21T01:29:37;101229.28;;;5.75;100.00
76694;BME280;69667;52.136;5.424;2023-11-21T01:32:05;101232.81;;;5.76;100.00
76694;BME280;69667;52.136;5.424;2023-11-21T01:34:35;101237.94;;;5.80;100.00
76694;BME280;69667;52.136;5.424;2023-11-21T01:37:04;101247.66;;;5.83;100.00
76694;BME280;69667;52.136;5.424;2023-11-21T01:39:32;101243.91;;;5.87;100.00
76694;BME280;69667;52.136;5.424;2023-11-21T01:42:01;101238.53;;;5.87;100.00
76694;BME280;69667;52.136;5.424;2023-11-21T01:44:29;101241.84;;;5.92;100.00
76694;BME280;69667;52.136;5.424;2023-11-21T01:46:57;101246.25;;;5.93;100.00
76694;BME280;69667;52.136;5.424;2023-11-21T01:49:25;101250.47;;;5.98;100.00
76694;BME280;69667;52.136;5.424;2023-11-21T01:51:54;101249.28;;;6.04;100.00
76694;BME280;69667;52.136;5.424;2023-11-21T01:54:22;101258.88;;;6.08;100.00
76694;BME280;69667;52.136;5.424;2023-11-21T01:56:51;101254.25;;;6.11;100.00
76694;BME280;69667;52.136;5.424;2023-11-21T01:59:20;101257.72;;;6.13;100.00
76694;BME280;69667;52.136;5.424;2023-11-21T02:01:50;101264.69;;;6.17;100.00
76694;BME280;69667;52.136;5.424;2023-11-21T02:04:18;101260.09;;;6.19;100.00
76694;BME280;69667;52.136;5.424;2023-11-21T02:06:48;101267.19;;;6.20;100.00
76694;BME280;69667;52.136;5.424;2023-11-21T02:09:27;101268.75;;;6.24;100.00
76694;BME280;69667;52.136;5.424;2023-11-21T02:11:57;101273.03;;;6.28;100.00
76694;BME280;69667;52.136;5.424;2023-11-21T02:14:26;101281.72;;;6.33;100.00
76694;BME280;69667;52.136;5.424;2023-11-21T02:16:55;101285.19;;;6.35;100.00
76694;BME280;69667;52.136;5.424;2023-11-21T02:19:28;101293.06;;;6.38;100.00
76694;BME280;69667;52.136;5.424;2023-11-21T02:21:59;101295.50;;;6.43;100.00
76694;BME280;69667;52.136;5.424;2023-11-21T02:24:33;101288.19;;;6.47;100.00
76694;BME280;69667;52.136;5.424;2023-11-21T02:27:03;101292.53;;;6.49;100.00
76694;BME280;69667;52.136;5.424;2023-11-21T02:29:31;101286.91;;;6.54;100.00
76694;BME280;69667;52.136;5.424;2023-11-21T02:31:59;101290.47;;;6.54;100.00
76694;BME280;69667;52.136;5.424;2023-11-21T02:34:27;101290.53;;;6.53;100.00
76694;BME280;69667;52.136;5.424;2023-11-21T02:36:56;101289.44;;;6.57;100.00
76694;BME280;69667;52.136;5.424;2023-11-21T02:39:24;101286.59;;;6.60;100.00
76694;BME280;69667;52.136;5.424;2023-11-21T02:41:53;101293.63;;;6.62;100.00
76694;BME280;69667;52.136;5.424;2023-11-21T02:44:21;101299.69;;;6.66;100.00
76694;BME280;69667;52.136;5.424;2023-11-21T02:46:49;101296.84;;;6.69;100.00
76694;BME280;69667;52.136;5.424;2023-11-21T02:49:17;101293.91;;;6.73;100.00
76694;BME280;69667;52.136;5.424;2023-11-21T02:51:45;101294.63;;;6.77;100.00
76694;BME280;69667;52.136;5.424;2023-11-21T02:54:14;101293.63;;;6.79;100.00
76694;BME280;69667;52.136;5.424;2023-11-21T02:56:46;101294.28;;;6.83;100.00
76694;BME280;69667;52.136;5.424;2023-11-21T02:59:14;101288.78;;;6.86;100.00
76694;BME280;69667;52.136;5.424;2023-11-21T03:01:43;101295.78;;;6.88;100.00
76694;BME280;69667;52.136;5.424;2023-11-21T03:04:11;101288.63;;;6.89;100.00
76694;BME280;69667;52.136;5.424;2023-11-21T03:06:45;101293.91;;;6.90;100.00
76694;BME280;69667;52.136;5.424;2023-11-21T03:09:13;101299.38;;;6.89;100.00
76694;BME280;69667;52.136;5.424;2023-11-21T03:11:41;101296.69;;;6.89;100.00
76694;BME280;69667;52.136;5.424;2023-11-21T03:14:10;101283.19;;;6.90;100.00
76694;BME280;69667;52.136;5.424;2023-11-21T03:16:38;101288.38;;;6.93;100.00
76694;BME280;69667;52.136;5.424;2023-11-21T03:19:08;101292.72;;;6.96;100.00
76694;BME280;69667;52.136;5.424;2023-11-21T03:21:36;101289.97;;;6.97;100.00
76694;BME280;69667;52.136;5.424;2023-11-21T03:24:05;101299.72;;;6.98;100.00
76694;BME280;69667;52.136;5.424;2023-11-21T03:26:34;101297.94;;;6.99;100.00
76694;BME280;69667;52.136;5.424;2023-11-21T03:29:04;101292.63;;;6.97;100.00
76694;BME280;69667;52.136;5.424;2023-11-21T03:31:32;101289.09;;;6.97;100.00
76694;BME280;69667;52.136;5.424;2023-11-21T03:34:01;101297.13;;;6.97;100.00
76694;BME280;69667;52.136;5.424;2023-11-21T03:36:29;101296.34;;;6.95;100.00
76694;BME280;69667;52.136;5.424;2023-11-21T03:38:57;101294.63;;;6.94;100.00
76694;BME280;69667;52.136;5.424;2023-11-21T03:41:26;101308.81;;;6.96;100.00
76694;BME280;69667;52.136;5.424;2023-11-21T03:43:54;101306.91;;;6.98;100.00
76694;BME280;69667;52.136;5.424;2023-11-21T03:46:22;101312.97;;;7.01;100.00
76694;BME280;69667;52.136;5.424;2023-11-21T03:48:51;101305.72;;;7.03;100.00
76694;BME280;69667;52.136;5.424;2023-11-21T03:51:19;101310.06;;;7.06;100.00
76694;BME280;69667;52.136;5.424;2023-11-21T03:53:47;101314.47;;;7.07;100.00
76694;BME280;69667;52.136;5.424;2023-11-21T03:56:15;101317.97;;;7.09;100.00
76694;BME280;69667;52.136;5.424;2023-11-21T03:58:43;101327.66;;;7.11;100.00
76694;BME280;69667;52.136;5.424;2023-11-21T04:01:12;101324.88;;;7.13;100.00
76694;BME280;69667;52.136;5.424;2023-11-21T04:03:49;101332.00;;;7.14;100.00
76694;BME280;69667;52.136;5.424;2023-11-21T04:06:18;101331.81;;;7.17;100.00
76694;BME280;69667;52.136;5.424;2023-11-21T04:08:46;101335.38;;;7.17;100.00
76694;BME280;69667;52.136;5.424;2023-11-21T04:11:14;101335.38;;;7.17;100.00
76694;BME280;69667;52.136;5.424;2023-11-21T04:13:43;101341.59;;;7.18;100.00
76694;BME280;69667;52.136;5.424;2023-11-21T04:16:11;101345.97;;;7.20;100.00
76694;BME280;69667;52.136;5.424;2023-11-21T04:18:40;101346.84;;;7.21;100.00
76694;BME280;69667;52.136;5.424;2023-11-21T04:21:08;101345.00;;;7.21;100.00
76694;BME280;69667;52.136;5.424;2023-11-21T04:23:36;101351.25;;;7.22;100.00
76694;BME280;69667;52.136;5.424;2023-11-21T04:26:04;101352.03;;;7.24;100.00
76694;BME280;69667;52.136;5.424;2023-11-21T04:28:32;101359.13;;;7.25;100.00
76694;BME280;69667;52.136;5.424;2023-11-21T04:31:02;101363.63;;;7.24;100.00
76694;BME280;69667;52.136;5.424;2023-11-21T04:33:30;101361.72;;;7.26;100.00
76694;BME280;69667;52.136;5.424;2023-11-21T04:35:58;101358.97;;;7.28;100.00
76694;BME280;69667;52.136;5.424;2023-11-21T04:38:27;101365.19;;;7.28;100.00
76694;BME280;69667;52.136;5.424;2023-11-21T04:40:55;101375.84;;;7.30;100.00
76694;BME280;69667;52.136;5.424;2023-11-21T04:43:24;101379.34;;;7.32;100.00
76694;BME280;69667;52.136;5.424;2023-11-21T04:45:54;101383.75;;;7.33;100.00
76694;BME280;69667;52.136;5.424;2023-11-21T04:48:22;101385.50;;;7.34;100.00
76694;BME280;69667;52.136;5.424;2023-11-21T04:50:50;101383.59;;;7.36;100.00
76694;BME280;69667;52.136;5.424;2023-11-21T04:53:19;101387.06;;;7.38;100.00
76694;BME280;69667;52.136;5.424;2023-11-21T04:55:47;101386.22;;;7.37;100.00
76694;BME280;69667;52.136;5.424;2023-11-21T04:58:16;101380.75;;;7.39;100.00
76694;BME280;69667;52.136;5.424;2023-11-21T05:00:44;101380.75;;;7.39;100.00
76694;BME280;69667;52.136;5.424;2023-11-21T05:03:13;101378.84;;;7.41;100.00
76694;BME280;69667;52.136;5.424;2023-11-21T05:05:41;101389.50;;;7.42;100.00
76694;BME280;69667;52.136;5.424;2023-11-21T05:08:09;101392.19;;;7.42;100.00
76694;BME280;69667;52.136;5.424;2023-11-21T05:10:38;101390.28;;;7.44;100.00
76694;BME280;69667;52.136;5.424;2023-11-21T05:13:06;101401.91;;;7.45;100.00
76694;BME280;69667;52.136;5.424;2023-11-21T05:15:37;101395.59;;;7.46;100.00
76694;BME280;69667;52.136;5.424;2023-11-21T05:18:06;101399.13;;;7.46;100.00
76694;BME280;69667;52.136;5.424;2023-11-21T05:20:34;101404.41;;;7.48;100.00
76694;BME280;69667;52.136;5.424;2023-11-21T05:23:03;101408.84;;;7.49;100.00
76694;BME280;69667;52.136;5.424;2023-11-21T05:25:31;101418.63;;;7.50;100.00
76694;BME280;69667;52.136;5.424;2023-11-21T05:27:59;101407.81;;;7.51;100.00
76694;BME280;69667;52.136;5.424;2023-11-21T05:30:29;101406.88;;;7.52;100.00
76694;BME280;69667;52.136;5.424;2023-11-21T05:32:57;101413.09;;;7.53;100.00
76694;BME280;69667;52.136;5.424;2023-11-21T05:35:25;101411.28;;;7.53;100.00
76694;BME280;69667;52.136;5.424;2023-11-21T05:37:54;101422.03;;;7.53;100.00
76694;BME280;69667;52.136;5.424;2023-11-21T05:40:22;101421.94;;;7.55;100.00
76694;BME280;69667;52.136;5.424;2023-11-21T05:42:51;101422.81;;;7.55;100.00
76694;BME280;69667;52.136;5.424;2023-11-21T05:45:19;101428.19;;;7.55;100.00
76694;BME280;69667;52.136;5.424;2023-11-21T05:47:48;101430.78;;;7.57;100.00
76694;BME280;69667;52.136;5.424;2023-11-21T05:50:16;101434.34;;;7.57;100.00
76694;BME280;69667;52.136;5.424;2023-11-21T05:52:47;101431.59;;;7.59;100.00
76694;BME280;69667;52.136;5.424;2023-11-21T05:55:16;101435.19;;;7.58;100.00
76694;BME280;69667;52.136;5.424;2023-11-21T05:57:44;101441.38;;;7.60;100.00
76694;BME280;69667;52.136;5.424;2023-11-21T06:00:14;101439.56;;;7.60;100.00
76694;BME280;69667;52.136;5.424;2023-11-21T06:02:49;101456.56;;;7.61;100.00
76694;BME280;69667;52.136;5.424;2023-11-21T06:05:23;101445.81;;;7.61;100.00
76694;BME280;69667;52.136;5.424;2023-11-21T06:07:54;101451.94;;;7.63;100.00
76694;BME280;69667;52.136;5.424;2023-11-21T06:10:23;101461.69;;;7.65;100.00
76694;BME280;69667;52.136;5.424;2023-11-21T06:12:52;101466.97;;;7.67;100.00
76694;BME280;69667;52.136;5.424;2023-11-21T06:15:21;101466.88;;;7.68;100.00
76694;BME280;69667;52.136;5.424;2023-11-21T06:17:51;101466.88;;;7.68;100.00
76694;BME280;69667;52.136;5.424;2023-11-21T06:20:21;101473.75;;;7.74;100.00
76694;BME280;69667;52.136;5.424;2023-11-21T06:22:50;101478.06;;;7.77;100.00
76694;BME280;69667;52.136;5.424;2023-11-21T06:25:19;101477.06;;;7.79;100.00
76694;BME280;69667;52.136;5.424;2023-11-21T06:27:48;101481.47;;;7.80;100.00
76694;BME280;69667;52.136;5.424;2023-11-21T06:30:16;101484.88;;;7.84;100.00
76694;BME280;69667;52.136;5.424;2023-11-21T06:32:47;101478.44;;;7.86;100.00
76694;BME280;69667;52.136;5.424;2023-11-21T06:35:17;101488.19;;;7.89;100.00
76694;BME280;69667;52.136;5.424;2023-11-21T06:37:45;101488.09;;;7.90;100.00
76694;BME280;69667;52.136;5.424;2023-11-21T06:40:18;101486.19;;;7.92;100.00
76694;BME280;69667;52.136;5.424;2023-11-21T06:42:47;101493.38;;;7.92;100.00
76694;BME280;69667;52.136;5.424;2023-11-21T06:45:16;101497.88;;;7.91;100.00
76694;BME280;69667;52.136;5.424;2023-11-21T06:47:45;101500.50;;;7.93;100.00
76694;BME280;69667;52.136;5.424;2023-11-21T06:50:13;101488.72;;;7.95;100.00
76694;BME280;69667;52.136;5.424;2023-11-21T06:52:41;101498.34;;;7.99;100.00
76694;BME280;69667;52.136;5.424;2023-11-21T06:55:10;101501.75;;;8.03;100.00
76694;BME280;69667;52.136;5.424;2023-11-21T06:57:39;101504.28;;;8.06;100.00
76694;BME280;69667;52.136;5.424;2023-11-21T07:00:07;101501.50;;;8.07;100.00
76694;BME280;69667;52.136;5.424;2023-11-21T07:02:37;101508.50;;;8.10;100.00
76694;BME280;69667;52.136;5.424;2023-11-21T07:05:06;101516.47;;;8.11;100.00
76694;BME280;69667;52.136;5.424;2023-11-21T07:07:35;101519.88;;;8.15;100.00
76694;BME280;69667;52.136;5.424;2023-11-21T07:10:05;101525.13;;;8.18;100.00
76694;BME280;69667;52.136;5.424;2023-11-21T07:12:33;101524.94;;;8.21;100.00
76694;BME280;69667;52.136;5.424;2023-11-21T07:15:03;101532.78;;;8.25;100.00
76694;BME280;69667;52.136;5.424;2023-11-21T07:17:36;101525.41;;;8.29;100.00
76694;BME280;69667;52.136;5.424;2023-11-21T07:20:08;101538.78;;;8.30;100.00
76694;BME280;69667;52.136;5.424;2023-11-21T07:22:36;101538.59;;;8.33;100.00
76694;BME280;69667;52.136;5.424;2023-11-21T07:25:04;101545.66;;;8.36;100.00
76694;BME280;69667;52.136;5.424;2023-11-21T07:27:34;101552.59;;;8.40;100.00
76694;BME280;69667;52.136;5.424;2023-11-21T07:30:03;101551.66;;;8.41;100.00
76694;BME280;69667;52.136;5.424;2023-11-21T07:32:33;101555.88;;;8.45;100.00
76694;BME280;69667;52.136;5.424;2023-11-21T07:35:01;101557.47;;;8.49;100.00
76694;BME280;69667;52.136;5.424;2023-11-21T07:37:29;101561.78;;;8.51;100.00
76694;BME280;69667;52.136;5.424;2023-11-21T07:39:58;101552.63;;;8.55;100.00
76694;BME280;69667;52.136;5.424;2023-11-21T07:42:26;101559.63;;;8.58;100.00
76694;BME280;69667;52.136;5.424;2023-11-21T07:44:54;101566.78;;;8.59;100.00
76694;BME280;69667;52.136;5.424;2023-11-21T07:47:23;101564.97;;;8.59;100.00
76694;BME280;69667;52.136;5.424;2023-11-21T07:49:55;101565.72;;;8.61;100.00
76694;BME280;69667;52.136;5.424;2023-11-21T07:52:23;101579.69;;;8.68;100.00
76694;BME280;69667;52.136;5.424;2023-11-21T07:54:51;101584.84;;;8.72;100.00
76694;BME280;69667;52.136;5.424;2023-11-21T07:57:20;101584.66;;;8.75;100.00
76694;BME280;69667;52.136;5.424;2023-11-21T07:59:48;101582.69;;;8.79;100.00
76694;BME280;69667;52.136;5.424;2023-11-21T08:02:16;101592.25;;;8.84;100.00
76694;BME280;69667;52.136;5.424;2023-11-21T08:04:45;101591.88;;;8.90;100.00
76694;BME280;69667;52.136;5.424;2023-11-21T08:07:17;101604.13;;;8.96;100.00
76694;BME280;69667;52.136;5.424;2023-11-21T08:09:45;101599.09;;;9.06;100.00
76694;BME280;69667;52.136;5.424;2023-11-21T08:12:16;101603.09;;;9.14;100.00
76694;BME280;69667;52.136;5.424;2023-11-21T08:14:45;101608.09;;;9.20;100.00
76694;BME280;69667;52.136;5.424;2023-11-21T08:17:13;101620.56;;;9.23;100.00
76694;BME280;69667;52.136;5.424;2023-11-21T08:19:44;101626.69;;;9.25;100.00
76694;BME280;69667;52.136;5.424;2023-11-21T08:22:16;101632.69;;;9.30;100.00
76694;BME280;69667;52.136;5.424;2023-11-21T08:24:45;101638.88;;;9.32;100.00
76694;BME280;69667;52.136;5.424;2023-11-21T08:27:14;101635.94;;;9.36;100.00
76694;BME280;69667;52.136;5.424;2023-11-21T08:29:43;101642.75;;;9.42;100.00
76694;BME280;69667;52.136;5.424;2023-11-21T08:32:11;101639.28;;;9.40;100.00
76694;BME280;69667;52.136;5.424;2023-11-21T08:34:40;101645.81;;;9.36;100.00
76694;BME280;69667;52.136;5.424;2023-11-21T08:37:10;101666.50;;;9.35;100.00
76694;BME280;69667;52.136;5.424;2023-11-21T08:39:39;101665.63;;;9.35;100.00
76694;BME280;69667;52.136;5.424;2023-11-21T08:42:09;101667.47;;;9.34;100.00
76694;BME280;69667;52.136;5.424;2023-11-21T08:44:37;101688.94;;;9.36;100.00
76694;BME280;69667;52.136;5.424;2023-11-21T08:47:06;101678.75;;;9.41;100.00
76694;BME280;69667;52.136;5.424;2023-11-21T08:49:35;101679.28;;;9.47;100.00
76694;BME280;69667;52.136;5.424;2023-11-21T08:52:04;101685.38;;;9.51;100.00
76694;BME280;69667;52.136;5.424;2023-11-21T08:54:32;101680.75;;;9.53;100.00
76694;BME280;69667;52.136;5.424;2023-11-21T08:57:01;101679.78;;;9.54;100.00
76694;BME280;69667;52.136;5.424;2023-11-21T08:59:29;101680.56;;;9.56;100.00
76694;BME280;69667;52.136;5.424;2023-11-21T09:01:58;101682.81;;;9.63;100.00
76694;BME280;69667;52.136;5.424;2023-11-21T09:04:26;101688.47;;;9.74;100.00
76694;BME280;69667;52.136;5.424;2023-11-21T09:06:54;101683.53;;;9.96;100.00
76694;BME280;69667;52.136;5.424;2023-11-21T09:09:23;101703.59;;;10.22;100.00
76694;BME280;69667;52.136;5.424;2023-11-21T09:11:52;101706.78;;;10.29;100.00
76694;BME280;69667;52.136;5.424;2023-11-21T09:14:20;101714.97;;;10.27;100.00
76694;BME280;69667;52.136;5.424;2023-11-21T09:16:48;101723.72;;;10.16;100.00
76694;BME280;69667;52.136;5.424;2023-11-21T09:19:18;101720.75;;;10.05;100.00
76694;BME280;69667;52.136;5.424;2023-11-21T09:21:46;101727.56;;;9.97;100.00
76694;BME280;69667;52.136;5.424;2023-11-21T09:24:15;101726.03;;;9.93;100.00
76694;BME280;69667;52.136;5.424;2023-11-21T09:26:43;101727.75;;;9.94;100.00
76694;BME280;69667;52.136;5.424;2023-11-21T09:29:12;101734.72;;;9.98;100.00
76694;BME280;69667;52.136;5.424;2023-11-21T09:31:41;101732.34;;;9.92;100.00
76694;BME280;69667;52.136;5.424;2023-11-21T09:34:11;101744.09;;;9.91;100.00
76694;BME280;69667;52.136;5.424;2023-11-21T09:36:39;101754.19;;;9.87;100.00
76694;BME280;69667;52.136;5.424;2023-11-21T09:39:08;101755.31;;;9.83;100.00
76694;BME280;69667;52.136;5.424;2023-11-21T09:41:57;101767.06;;;9.82;100.00
76694;BME280;69667;52.136;5.424;2023-11-21T09:44:58;101776.28;;;9.78;100.00
76694;BME280;69667;52.136;5.424;2023-11-21T09:47:35;101775.69;;;9.73;100.00
76694;BME280;69667;52.136;5.424;2023-11-21T09:50:07;101784.03;;;9.69;100.00
76694;BME280;69667;52.136;5.424;2023-11-21T09:53:02;101782.38;;;9.66;100.00
76694;BME280;69667;52.136;5.424;2023-11-21T09:55:38;101785.06;;;9.66;100.00
76694;BME280;69667;52.136;5.424;2023-11-21T09:58:08;101788.47;;;9.70;100.00
76694;BME280;69667;52.136;5.424;2023-11-21T10:00:44;101788.47;;;9.70;100.00
76694;BME280;69667;52.136;5.424;2023-11-21T10:03:12;101800.13;;;9.70;100.00
76694;BME280;69667;52.136;5.424;2023-11-21T10:05:44;101795.94;;;9.65;100.00
76694;BME280;69667;52.136;5.424;2023-11-21T10:08:15;101802.56;;;9.59;100.00
76694;BME280;69667;52.136;5.424;2023-11-21T10:10:44;101802.75;;;9.56;100.00
76694;BME280;69667;52.136;5.424;2023-11-21T10:13:13;101809.06;;;9.55;100.00
76694;BME280;69667;52.136;5.424;2023-11-21T10:15:49;101816.34;;;9.53;100.00
76694;BME280;69667;52.136;5.424;2023-11-21T10:18:18;101812.03;;;9.51;100.00
76694;BME280;69667;52.136;5.424;2023-11-21T10:20:47;101818.91;;;9.56;100.00
76694;BME280;69667;52.136;5.424;2023-11-21T10:23:21;101829.16;;;9.65;100.00
76694;BME280;69667;52.136;5.424;2023-11-21T10:25:52;101835.50;;;9.80;100.00
76694;BME280;69667;52.136;5.424;2023-11-21T10:28:21;101838.66;;;9.88;100.00
76694;BME280;69667;52.136;5.424;2023-11-21T10:30:50;101836.72;;;9.90;100.00
76694;BME280;69667;52.136;5.424;2023-11-21T10:33:27;101833.34;;;9.86;100.00
76694;BME280;69667;52.136;5.424;2023-11-21T10:35:56;101841.78;;;9.80;100.00
76694;BME280;69667;52.136;5.424;2023-11-21T10:38:25;101845.16;;;9.68;100.00
76694;BME280;69667;52.136;5.424;2023-11-21T10:40:54;101851.16;;;9.58;100.00
76694;BME280;69667;52.136;5.424;2023-11-21T10:43:26;101865.03;;;9.50;100.00
76694;BME280;69667;52.136;5.424;2023-11-21T10:45:57;101869.63;;;9.48;100.00
76694;BME280;69667;52.136;5.424;2023-11-21T10:48:27;101874.31;;;9.45;100.00
76694;BME280;69667;52.136;5.424;2023-11-21T10:50:55;101881.66;;;9.43;100.00
76694;BME280;69667;52.136;5.424;2023-11-21T10:53:28;101887.13;;;9.41;100.00
76694;BME280;69667;52.136;5.424;2023-11-21T10:56:02;101889.94;;;9.38;100.00
76694;BME280;69667;52.136;5.424;2023-11-21T10:58:35;101894.41;;;9.39;100.00
76694;BME280;69667;52.136;5.424;2023-11-21T11:01:06;101896.06;;;9.42;100.00
76694;BME280;69667;52.136;5.424;2023-11-21T11:03:36;101903.28;;;9.41;100.00
76694;BME280;69667;52.136;5.424;2023-11-21T11:06:05;101897.63;;;9.46;100.00
76694;BME280;69667;52.136;5.424;2023-11-21T11:08:39;101898.25;;;9.51;100.00
76694;BME280;69667;52.136;5.424;2023-11-21T11:11:10;101900.63;;;9.57;100.00
76694;BME280;69667;52.136;5.424;2023-11-21T11:13:43;101905.84;;;9.60;100.00
76694;BME280;69667;52.136;5.424;2023-11-21T11:16:15;101897.69;;;9.61;100.00
76694;BME280;69667;52.136;5.424;2023-11-21T11:18:45;101901.31;;;9.60;100.00
76694;BME280;69667;52.136;5.424;2023-11-21T11:21:25;101902.47;;;9.56;100.00
76694;BME280;69667;52.136;5.424;2023-11-21T11:24:27;101905.38;;;9.52;100.00
76694;BME280;69667;52.136;5.424;2023-11-21T11:30:03;101911.56;;;9.54;100.00
76694;BME280;69667;52.136;5.424;2023-11-21T11:32:52;101906.00;;;9.57;100.00
76694;BME280;69667;52.136;5.424;2023-11-21T11:35:30;101912.91;;;9.62;100.00
76694;BME280;69667;52.136;5.424;2023-11-21T11:38:01;101916.84;;;9.72;100.00
76694;BME280;69667;52.136;5.424;2023-11-21T11:40:45;101906.59;;;9.79;100.00
76694;BME280;69667;52.136;5.424;2023-11-21T11:43:27;101910.88;;;9.83;100.00
76694;BME280;69667;52.136;5.424;2023-11-21T11:45:56;101919.88;;;9.82;100.00
76694;BME280;69667;52.136;5.424;2023-11-21T11:48:26;101924.66;;;9.77;100.00
76694;BME280;69667;52.136;5.424;2023-11-21T11:51:03;101923.88;;;9.75;100.00
76694;BME280;69667;52.136;5.424;2023-11-21T11:53:39;101931.72;;;9.79;100.00
76694;BME280;69667;52.136;5.424;2023-11-21T11:56:29;101939.56;;;9.84;100.00
76694;BME280;69667;52.136;5.424;2023-11-21T11:59:00;101939.38;;;9.87;100.00
76694;BME280;69667;52.136;5.424;2023-11-21T12:01:34;101943.13;;;9.84;100.00
76694;BME280;69667;52.136;5.424;2023-11-21T12:06:44;101955.19;;;9.77;100.00
76694;BME280;69667;52.136;5.424;2023-11-21T12:09:22;101952.69;;;9.74;100.00
76694;BME280;69667;52.136;5.424;2023-11-21T12:11:54;101961.88;;;9.70;100.00
76694;BME280;69667;52.136;5.424;2023-11-21T12:14:24;101965.28;;;9.74;100.00
76694;BME280;69667;52.136;5.424;2023-11-21T12:16:52;101957.28;;;9.72;100.00
76694;BME280;69667;52.136;5.424;2023-11-21T12:19:21;101961.88;;;9.70;100.00
76694;BME280;69667;52.136;5.424;2023-11-21T12:21:49;101969.16;;;9.68;100.00
76694;BME280;69667;52.136;5.424;2023-11-21T12:24:18;101964.19;;;9.61;100.00
76694;BME280;69667;52.136;5.424;2023-11-21T12:26:46;101973.38;;;9.57;100.00
76694;BME280;69667;52.136;5.424;2023-11-21T12:29:15;101971.66;;;9.56;100.00
76694;BME280;69667;52.136;5.424;2023-11-21T12:31:44;101975.28;;;9.55;100.00
76694;BME280;69667;52.136;5.424;2023-11-21T12:34:13;101970.06;;;9.52;100.00
76694;BME280;69667;52.136;5.424;2023-11-21T12:36:41;101971.03;;;9.51;100.00
76694;BME280;69667;52.136;5.424;2023-11-21T12:39:09;101972.75;;;9.52;100.00
76694;BME280;69667;52.136;5.424;2023-11-21T12:41:38;101971.03;;;9.51;100.00
76694;BME280;69667;52.136;5.424;2023-11-21T12:44:11;101978.16;;;9.52;100.00
76694;BME280;69667;52.136;5.424;2023-11-21T12:46:43;101982.75;;;9.50;100.00
76694;BME280;69667;52.136;5.424;2023-11-21T12:49:12;101986.31;;;9.50;100.00
76694;BME280;69667;52.136;5.424;2023-11-21T12:51:48;101985.31;;;9.53;100.00
76694;BME280;69667;52.136;5.424;2023-11-21T12:54:16;101988.13;;;9.50;100.00
76694;BME280;69667;52.136;5.424;2023-11-21T12:56:45;102003.44;;;9.49;100.00
76694;BME280;69667;52.136;5.424;2023-11-21T12:59:16;101996.00;;;9.54;100.00
76694;BME280;69667;52.136;5.424;2023-11-21T13:01:46;101999.41;;;9.58;100.00
76694;BME280;69667;52.136;5.424;2023-11-21T13:04:16;102008.03;;;9.64;100.00
76694;BME280;69667;52.136;5.424;2023-11-21T13:06:45;102009.44;;;9.71;100.00
76694;BME280;69667;52.136;5.424;2023-11-21T13:09:14;102008.16;;;9.78;100.00